Time;durP1;ratioP1;P1;durP2;ratioP2;P2;SDS_P1;SDS_P2;PMS_P1;PMS_P2;Temp;Humidity;BMP_temperature;BMP_pressure;BME280_temperature;BME280_humidity;BME280_pressure;Samples;Min_cycle;Max_cycle;Signal;HPM_P1;HPM_P2
2021/04/19 00:00:12;;;;;;;20.15;12.85;;;;;;;11.59;59.83;99692.94;4336613;32;20110;-93
2021/04/19 00:02:38;;;;;;;18.23;13.38;;;;;;;11.41;59.81;99698.81;4337171;32;20131;-93
2021/04/19 00:05:06;;;;;;;19.73;13.45;;;;;;;11.51;59.81;99705.38;4324993;32;20121;-93
2021/04/19 00:07:31;;;;;;;20.80;13.40;;;;;;;11.55;59.82;99690.47;4337480;32;20117;-95
2021/04/19 00:09:57;;;;;;;19.58;13.40;;;;;;;11.42;59.81;99695.28;4337235;32;20174;-94
2021/04/19 00:12:22;;;;;;;18.80;13.70;;;;;;;11.29;59.79;99692.25;4350020;32;20134;-93
2021/04/19 00:14:48;;;;;;;21.55;14.57;;;;;;;11.28;59.80;99681.91;4337624;32;20158;-93
2021/04/19 00:17:13;;;;;;;19.70;14.40;;;;;;;11.13;59.79;99683.31;4337373;32;20441;-94
2021/04/19 00:19:39;;;;;;;23.90;14.98;;;;;;;11.27;59.80;99683.66;4337323;32;20155;-94
2021/04/19 00:22:08;;;;;;;19.95;14.10;;;;;;;11.03;59.79;99679.31;4336981;32;20190;-94
2021/04/19 00:24:33;;;;;;;22.67;15.97;;;;;;;11.15;59.79;99681.50;4337430;32;20115;-94
2021/04/19 00:26:59;;;;;;;23.50;16.15;;;;;;;11.14;59.79;99673.75;4337692;32;20694;-93
2021/04/19 00:29:27;;;;;;;23.85;16.23;;;;;;;11.18;59.80;99681.37;4339238;32;20478;-93
2021/04/19 00:31:53;;;;;;;22.30;15.13;;;;;;;11.25;59.80;99677.66;4351879;32;20381;-93
2021/04/19 00:34:21;;;;;;;22.52;16.48;;;;;;;11.18;59.79;99676.19;4339006;32;20503;-93
2021/04/19 00:36:46;;;;;;;23.12;16.25;;;;;;;11.23;59.80;99679.47;4339074;32;20085;-93
2021/04/19 00:39:12;;;;;;;23.80;17.33;;;;;;;11.27;59.80;99675.84;4339080;32;20130;-94
2021/04/19 00:41:37;;;;;;;26.50;17.12;;;;;;;11.20;59.79;99673.53;4339067;32;20134;-93
2021/04/19 00:44:06;;;;;;;24.98;17.00;;;;;;;11.02;59.79;99669.81;4339077;32;20134;-94
2021/04/19 00:46:31;;;;;;;25.62;16.83;;;;;;;11.18;59.80;99670.12;4339207;32;20482;-93
2021/04/19 00:49:00;;;;;;;26.65;17.27;;;;;;;10.93;59.78;99667.53;4338902;32;20115;-93
2021/04/19 00:51:25;;;;;;;27.23;18.12;;;;;;;10.99;59.79;99669.91;4339721;32;20186;-93
2021/04/19 00:53:51;;;;;;;26.98;17.52;;;;;;;10.99;59.79;99669.91;4339542;32;20118;-94
2021/04/19 00:56:19;;;;;;;25.23;16.87;;;;;;;10.89;59.78;99664.19;4339155;32;20213;-93
2021/04/19 00:58:46;;;;;;;28.38;19.70;;;;;;;11.12;59.79;99662.50;4339311;32;20170;-93
2021/04/19 01:01:20;;;;;;;25.05;17.58;;;;;;;11.02;59.79;99660.22;4351674;32;20119;-94
2021/04/19 01:03:46;;;;;;;28.25;18.17;;;;;;;10.93;59.79;99665.78;4339401;32;20082;-94
2021/04/19 01:06:12;;;;;;;25.83;16.90;;;;;;;11.08;59.79;99667.81;4339867;32;20095;-93
2021/04/19 01:08:37;;;;;;;25.62;18.27;;;;;;;11.11;59.79;99663.41;4339486;32;20405;-94
2021/04/19 01:11:03;;;;;;;23.33;17.35;;;;;;;11.13;59.79;99667.69;4339795;32;20183;-94
2021/04/19 01:13:29;;;;;;;24.95;17.02;;;;;;;11.01;59.79;99661.12;4351846;32;20216;-94
2021/04/19 01:15:54;;;;;;;24.02;16.48;;;;;;;11.00;59.79;99669.00;4352248;32;20092;-94
2021/04/19 01:18:19;;;;;;;21.87;16.05;;;;;;;11.11;59.79;99663.41;4339262;32;20152;-95
2021/04/19 01:20:56;;;;;;;23.30;15.93;;;;;;;11.20;59.79;99658.72;4338986;32;20136;-93
2021/04/19 01:23:25;;;;;;;24.48;16.37;;;;;;;11.11;59.79;99653.84;4338619;32;20094;-93
2021/04/19 01:25:50;;;;;;;22.15;15.02;;;;;;;10.96;59.78;99662.22;4338900;32;20162;-91
2021/04/19 01:28:19;;;;;;;23.00;15.88;;;;;;;10.96;59.79;99664.81;4337995;32;20145;-91
2021/04/19 01:30:47;;;;;;;23.35;15.52;;;;;;;11.05;59.79;99662.72;4338394;32;20480;-91
2021/04/19 01:33:18;;;;;;;24.42;16.45;;;;;;;11.01;59.79;99658.53;4337745;32;20095;-91
2021/04/19 01:35:44;;;;;;;22.75;16.20;;;;;;;11.06;59.78;99661.81;4338091;32;20489;-91
2021/04/19 01:38:20;;;;;;;23.00;16.45;;;;;;;10.99;59.79;99654.28;4362152;32;20110;-90
2021/04/19 01:40:56;;;;;;;;;;;;;;;;;;;;;
2021/04/19 01:43:24;;;;;;;22.15;16.70;;;;;;;10.97;59.78;99654.34;4349676;32;37254;-90
2021/04/19 01:45:50;;;;;;;23.25;17.12;;;;;;;10.99;59.79;99657.75;4348811;32;20518;-90
2021/04/19 01:48:15;;;;;;;26.15;17.08;;;;;;;10.92;59.79;99663.22;4336631;32;20146;-90
2021/04/19 01:50:41;;;;;;;22.23;16.87;;;;;;;10.99;59.79;99659.50;4336459;32;20469;-90
2021/04/19 01:53:07;;;;;;;25.73;17.25;;;;;;;11.04;59.78;99657.56;4337215;32;20099;-93
2021/04/19 01:55:34;;;;;;;25.90;17.45;;;;;;;10.95;59.78;99663.13;4338720;32;20137;-92
2021/04/19 01:58:17;;;;;;;23.12;16.17;;;;;;;10.95;59.78;99653.53;4350573;32;20102;-92
2021/04/19 02:00:45;;;;;;;25.83;18.25;;;;;;;11.14;59.79;99655.50;4339619;32;20115;-93
2021/04/19 02:03:16;;;;;;;24.45;17.73;;;;;;;10.95;59.78;99653.53;4338594;32;20125;-95
2021/04/19 02:06:14;;;;;;;26.02;18.20;;;;;;;11.01;59.79;99657.69;4362925;32;20150;-93
2021/04/19 02:08:59;;;;;;;25.05;17.67;;;;;;;11.06;59.78;99660.97;4330491;32;20123;-94
2021/04/19 02:12:03;;;;;;;23.80;17.60;;;;;;;10.88;59.78;99657.25;4338157;32;20107;-93
2021/04/19 02:15:07;;;;;;;27.48;18.87;;;;;;;11.11;59.79;99656.44;4350089;32;20091;-92
2021/04/19 02:18:00;;;;;;;29.58;19.02;;;;;;;11.07;59.79;99657.47;4359373;32;20083;-92
2021/04/19 02:20:45;;;;;;;28.67;18.92;;;;;;;11.02;59.79;99654.16;4338403;32;20173;-92
2021/04/19 02:23:27;;;;;;;30.40;20.20;;;;;;;10.94;59.78;99654.44;4362311;32;20151;-92
2021/04/19 02:26:22;;;;;;;27.10;19.98;;;;;;;10.98;59.78;99656.03;4349446;32;20055;-91
2021/04/19 02:29:12;;;;;;;26.00;17.92;;;;;;;10.89;59.78;99651.16;4350576;32;20107;-92
2021/04/19 02:31:44;;;;;;;27.80;19.50;;;;;;;11.09;59.80;99650.44;4349275;32;20125;-92
2021/04/19 02:34:14;;;;;;;29.90;19.83;;;;;;;11.01;59.79;99650.72;4337226;32;20099;-90
2021/04/19 02:36:43;;;;;;;30.45;21.45;;;;;;;11.12;59.79;99646.88;4336862;32;20064;-91
2021/04/19 02:39:09;;;;;;;26.53;19.47;;;;;;;11.02;59.79;99642.00;4337157;32;20206;-92
2021/04/19 02:42:03;;;;;;;29.27;19.92;;;;;;;11.13;59.79;99646.00;4349887;32;20449;-94
2021/04/19 02:44:34;;;;;;;28.33;19.58;;;;;;;11.21;59.79;99647.41;4355980;32;20158;-92
2021/04/19 02:47:00;;;;;;;29.58;20.77;;;;;;;11.12;59.79;99647.75;4337930;32;20094;-93
2021/04/19 02:49:36;;;;;;;28.52;20.65;;;;;;;11.17;59.79;99637.16;4335955;32;20141;-94
2021/04/19 02:52:03;;;;;;;31.60;20.50;;;;;;;11.11;59.79;99645.16;4338367;32;20083;-93
2021/04/19 02:54:30;;;;;;;29.52;20.88;;;;;;;11.17;59.79;99643.22;4338263;32;20137;-93
2021/04/19 02:56:59;;;;;;;30.52;19.45;;;;;;;11.04;59.78;99636.72;4350610;32;20091;-94
2021/04/19 02:59:28;;;;;;;28.38;19.23;;;;;;;11.25;59.79;99635.97;4337884;32;20371;-94
2021/04/19 03:02:14;;;;;;;30.58;19.92;;;;;;;11.30;59.79;99635.78;4338566;32;20102;-95
2021/04/19 03:04:39;;;;;;;27.50;19.77;;;;;;;11.23;59.80;99635.16;4340583;32;20115;-93
2021/04/19 03:10:36;;;;;;;29.50;19.52;;;;;;;11.25;59.80;99637.72;4326114;33;20496;-93
2021/04/19 03:13:02;;;;;;;27.95;19.40;;;;;;;11.36;59.80;99639.03;4329012;32;20114;-94
2021/04/19 03:15:33;;;;;;;30.90;19.55;;;;;;;11.29;59.79;99637.53;4337237;32;20107;-92
2021/04/19 03:17:59;;;;;;;29.67;20.37;;;;;;;11.27;59.80;99638.50;4349488;32;20106;-94
2021/04/19 03:21:01;;;;;;;28.60;18.55;;;;;;;11.15;59.79;99636.38;4337996;32;20099;-93
2021/04/19 03:23:27;;;;;;;29.35;19.70;;;;;;;11.29;59.79;99640.16;4351972;32;20118;-93
2021/04/19 03:25:52;;;;;;;26.98;18.83;;;;;;;11.21;59.79;99644.81;4337393;32;20468;-94
2021/04/19 03:28:18;;;;;;;29.12;19.52;;;;;;;11.18;59.79;99644.91;4337250;32;20125;-93
2021/04/19 03:30:44;;;;;;;30.08;18.92;;;;;;;11.23;59.80;99637.78;4337144;32;20121;-92
2021/04/19 03:33:12;;;;;;;27.62;19.12;;;;;;;11.25;59.80;99635.13;4349313;32;20488;-93
2021/04/19 03:35:37;;;;;;;30.60;19.30;;;;;;;11.18;59.79;99641.47;4349504;32;20103;-93
2021/04/19 03:38:03;;;;;;;28.50;19.67;;;;;;;11.05;59.78;99634.06;4336482;32;20161;-92
2021/04/19 03:40:35;;;;;;;30.90;19.27;;;;;;;11.02;59.79;99639.41;4336903;32;20138;-92
2021/04/19 03:43:06;;;;;;;26.45;18.02;;;;;;;10.85;59.77;99646.09;4337547;32;20751;-92
2021/04/19 03:45:34;;;;;;;29.30;19.65;;;;;;;10.92;59.77;99637.19;4349313;32;20181;-95
2021/04/19 03:47:59;;;;;;;30.75;19.25;;;;;;;10.90;59.78;99639.84;4337085;32;20581;-93
2021/04/19 03:50:25;;;;;;;33.88;20.25;;;;;;;10.87;59.78;99639.06;4337044;32;20256;-94
2021/04/19 03:52:53;;;;;;;32.85;20.02;;;;;;;10.93;59.78;99646.69;4349170;32;20185;-93
2021/04/19 03:55:18;;;;;;;34.92;21.65;;;;;;;10.86;59.78;99648.63;4337099;32;20137;-92
2021/04/19 03:57:50;;;;;;;37.88;21.48;;;;;;;10.93;59.79;99647.53;4335636;32;20126;-93
2021/04/19 04:00:20;;;;;;;32.05;21.42;;;;;;;10.79;59.78;99647.16;4337095;32;20103;-94
2021/04/19 04:02:52;;;;;;;36.50;22.98;;;;;;;10.83;59.78;99640.09;4340369;32;20102;-94
2021/04/19 04:05:20;;;;;;;32.42;21.75;;;;;;;10.91;59.78;99648.50;4339193;32;20137;-94
2021/04/19 04:07:50;;;;;;;35.33;22.80;;;;;;;10.89;59.78;99642.50;4337292;32;20559;-89
2021/04/19 04:10:21;;;;;;;34.70;21.93;;;;;;;10.96;59.79;99651.78;4349828;32;20154;-91
2021/04/19 04:12:48;;;;;;;34.00;23.48;;;;;;;10.86;59.78;99653.00;4337113;32;20519;-91
2021/04/19 04:15:13;;;;;;;27.98;18.33;;;;;;;11.02;59.79;99643.75;4336500;32;20111;-91
2021/04/19 04:17:39;;;;;;;26.37;17.55;;;;;;;11.01;59.79;99647.25;4337185;32;20086;-91
2021/04/19 04:20:05;;;;;;;29.12;18.40;;;;;;;11.05;59.79;99649.69;4361628;32;20495;-91
2021/04/19 04:22:30;;;;;;;27.92;15.85;;;;;;;10.90;59.78;99647.66;4349424;32;20127;-92
2021/04/19 04:24:56;;;;;;;26.12;15.85;;;;;;;11.00;59.79;99649.03;4349592;32;20130;-92
2021/04/19 04:27:22;;;;;;;29.23;17.98;;;;;;;10.98;59.78;99652.59;4349519;32;20122;-91
2021/04/19 04:29:47;;;;;;;30.73;17.60;;;;;;;10.90;59.77;99650.25;4336539;32;20154;-91
2021/04/19 04:32:12;;;;;;;26.95;17.92;;;;;;;11.08;59.80;99646.12;4336769;32;20198;-91
2021/04/19 04:34:41;;;;;;;27.90;17.33;;;;;;;11.07;59.79;99647.88;4349599;32;20103;-90
2021/04/19 04:37:06;;;;;;;29.23;17.65;;;;;;;11.18;59.79;99650.13;4349864;32;20150;-92
2021/04/19 04:39:32;;;;;;;25.37;17.67;;;;;;;11.15;59.79;99650.25;4336870;32;20401;-91
2021/04/19 04:41:57;;;;;;;28.12;19.12;;;;;;;11.13;59.79;99646.84;4336931;32;20141;-91
2021/04/19 04:44:30;;;;;;;29.55;19.55;;;;;;;10.98;59.78;99652.59;4336993;32;20250;-90
2021/04/19 04:47:05;;;;;;;28.58;16.30;;;;;;;11.04;59.78;99648.00;4337059;32;20102;-91
2021/04/19 04:49:38;;;;;;;28.83;17.10;;;;;;;11.19;59.79;99651.81;4361490;32;20094;-91
2021/04/19 04:52:04;;;;;;;27.40;18.02;;;;;;;11.14;59.79;99647.69;4349582;32;20185;-91
2021/04/19 04:54:29;;;;;;;22.00;15.88;;;;;;;11.05;59.78;99654.91;4336793;32;20130;-91
2021/04/19 04:57:00;;;;;;;26.00;16.30;;;;;;;11.09;59.79;99655.66;4336623;32;20166;-90
2021/04/19 04:59:26;;;;;;;25.75;16.58;;;;;;;11.14;59.79;99653.75;4336733;32;20106;-87
2021/04/19 05:01:51;;;;;;;28.90;17.58;;;;;;;11.14;59.79;99656.34;4349145;32;20122;-91
2021/04/19 05:04:17;;;;;;;25.80;18.52;;;;;;;11.08;59.79;99657.41;4336244;32;24998;-91
2021/04/19 05:06:43;;;;;;;26.33;18.10;;;;;;;11.05;59.78;99659.28;4348333;32;31389;-90
2021/04/19 05:09:09;;;;;;;32.83;18.37;;;;;;;11.07;59.79;99654.84;4336858;32;20161;-92
2021/04/19 05:11:35;;;;;;;26.85;17.45;;;;;;;11.02;59.79;99657.63;4348927;32;20095;-91
2021/04/19 05:14:01;;;;;;;21.33;16.62;;;;;;;11.20;59.79;99658.72;4360962;32;20162;-91
2021/04/19 05:16:26;;;;;;;25.15;17.42;;;;;;;11.24;59.80;99662.06;4337074;32;20124;-90
2021/04/19 05:18:52;;;;;;;25.65;17.30;;;;;;;11.29;59.79;99657.53;4360940;32;20111;-88
2021/04/19 05:21:18;;;;;;;24.15;16.92;;;;;;;11.22;59.79;99656.91;4362517;32;20091;-91
2021/04/19 05:23:43;;;;;;;23.67;16.35;;;;;;;11.19;59.79;99664.00;4336617;32;20238;-90
2021/04/19 05:26:08;;;;;;;22.00;16.33;;;;;;;11.34;59.80;99661.66;4361273;32;20155;-90
2021/04/19 05:28:34;;;;;;;20.62;15.95;;;;;;;11.47;59.82;99664.69;4348317;32;22774;-91
2021/04/19 05:30:59;;;;;;;29.15;16.75;;;;;;;11.51;59.81;99662.81;4336543;32;20437;-91
2021/04/19 05:33:25;;;;;;;24.92;16.05;;;;;;;11.39;59.81;99656.31;4336502;32;20118;-90
2021/04/19 05:35:51;;;;;;;21.58;15.13;;;;;;;11.48;59.81;99660.31;4360492;32;27327;-92
2021/04/19 05:38:16;;;;;;;21.55;16.35;;;;;;;11.53;59.82;99669.66;4361237;32;20103;-91
2021/04/19 05:40:42;;;;;;;25.48;16.70;;;;;;;11.58;59.81;99659.91;4348249;32;25781;-90
2021/04/19 05:43:07;;;;;;;21.92;16.80;;;;;;;11.67;59.82;99669.16;4348620;32;20134;-91
2021/04/19 05:45:34;;;;;;;28.25;17.50;;;;;;;11.48;59.81;99662.94;4336614;32;20106;-91
2021/04/19 05:48:00;;;;;;;19.42;14.85;;;;;;;11.69;59.82;99662.12;4361031;32;20071;-89
2021/04/19 05:50:25;;;;;;;21.75;15.00;;;;;;;11.88;59.83;99659.72;4337806;32;20079;-91
2021/04/19 05:52:52;;;;;;;19.08;13.88;;;;;;;11.84;59.83;99663.34;4347764;32;20125;-89
2021/04/19 05:55:18;;;;;;;18.85;14.65;;;;;;;11.91;59.84;99665.66;4348281;32;20130;-90
2021/04/19 05:58:04;;;;;;;18.02;14.35;;;;;;;11.92;59.84;99659.53;4361040;32;20488;-90
2021/04/19 06:00:33;;;;;;;21.58;15.60;;;;;;;11.80;59.82;99667.81;4360898;32;20099;-90
2021/04/19 06:03:25;;;;;;;22.10;15.02;;;;;;;11.91;59.84;99664.81;4348499;32;20106;-89
2021/04/19 06:06:15;;;;;;;22.83;16.83;;;;;;;12.05;59.84;99661.66;4350231;32;20134;-89
2021/04/19 06:08:51;;;;;;;16.90;12.95;;;;;;;11.96;59.83;99657.66;4336248;32;20099;-90
2021/04/19 06:11:25;;;;;;;18.80;13.00;;;;;;;12.07;59.84;99662.47;4348491;32;20114;-90
2021/04/19 06:13:50;;;;;;;16.40;12.37;;;;;;;11.99;59.84;99663.59;4336304;32;20141;-90
2021/04/19 06:16:16;;;;;;;16.92;11.93;;;;;;;12.29;59.86;99655.44;4347922;32;23117;-89
2021/04/19 06:18:42;;;;;;;14.52;11.32;;;;;;;12.16;59.85;99665.53;4336114;32;20165;-90
2021/04/19 06:21:08;;;;;;;15.60;11.77;;;;;;;12.01;59.84;99662.69;4348275;32;20123;-91
2021/04/19 06:23:34;;;;;;;16.25;10.60;;;;;;;12.14;59.85;99663.91;4347502;32;20194;-89
2021/04/19 06:25:59;;;;;;;16.10;11.73;;;;;;;12.18;59.85;99661.09;4335674;32;20114;-90
2021/04/19 06:28:25;;;;;;;17.10;11.57;;;;;;;11.99;59.84;99660.97;4348171;32;20134;-91
2021/04/19 06:30:50;;;;;;;15.52;12.02;;;;;;;12.08;59.84;99659.78;4348444;32;20215;-90
2021/04/19 06:33:16;;;;;;;16.05;11.50;;;;;;;12.14;59.85;99664.75;4348231;32;20512;-90
2021/04/19 06:35:42;;;;;;;16.37;12.63;;;;;;;12.15;59.85;99663.00;4348125;32;20107;-90
2021/04/19 06:38:08;;;;;;;20.15;14.15;;;;;;;12.14;59.85;99662.16;4347782;32;20130;-89
2021/04/19 06:40:37;;;;;;;18.75;12.43;;;;;;;12.34;59.85;99660.50;4335580;32;20150;-89
2021/04/19 06:43:03;;;;;;;17.65;13.23;;;;;;;12.45;59.87;99661.75;4360713;32;20111;-90
2021/04/19 06:45:28;;;;;;;16.08;12.82;;;;;;;12.45;59.86;99658.28;4348030;32;20114;-89
2021/04/19 06:47:54;;;;;;;16.35;12.82;;;;;;;12.38;59.86;99659.47;4360005;32;20110;-89
2021/04/19 06:50:20;;;;;;;15.40;11.60;;;;;;;12.33;59.85;99661.41;4348213;32;20503;-89
2021/04/19 06:52:48;;;;;;;15.52;11.35;;;;;;;12.56;59.87;99664.78;4359774;32;20169;-89
2021/04/19 06:55:18;;;;;;;14.32;11.02;;;;;;;12.75;59.88;99664.00;4360408;32;20114;-88
2021/04/19 06:58:01;;;;;;;19.77;12.00;;;;;;;12.72;59.87;99662.34;4360214;32;20107;-89
2021/04/19 07:00:29;;;;;;;15.93;11.52;;;;;;;12.65;59.87;99660.09;4347946;32;20115;-89
2021/04/19 07:03:02;;;;;;;15.48;10.70;;;;;;;12.59;59.87;99659.44;4360346;32;20471;-88
2021/04/19 07:05:36;;;;;;;20.27;11.25;;;;;;;12.72;59.87;99656.28;4360433;32;20676;-88
2021/04/19 07:08:40;;;;;;;13.27;9.98;;;;;;;12.58;59.88;99654.28;4335368;32;20121;-89
2021/04/19 07:11:06;;;;;;;9.15;6.90;;;;;;;12.65;59.87;99649.63;4329294;33;20139;-89
2021/04/19 07:13:36;;;;;;;9.40;7.05;;;;;;;12.74;59.88;99650.09;4317156;33;20115;-88
2021/04/19 07:16:01;;;;;;;12.23;9.18;;;;;;;12.60;59.87;99655.06;4336923;32;20790;-89
2021/04/19 07:18:27;;;;;;;13.77;9.27;;;;;;;12.60;59.88;99652.44;4335484;32;20139;-89
2021/04/19 07:20:52;;;;;;;10.13;7.30;;;;;;;12.87;59.88;99653.03;4334944;32;20443;-89
2021/04/19 07:23:18;;;;;;;11.45;8.13;;;;;;;13.17;59.90;99643.87;4347219;32;20473;-89
2021/04/19 07:25:44;;;;;;;11.65;7.68;;;;;;;13.26;59.90;99647.03;4347799;32;20130;-88
2021/04/19 07:28:09;;;;;;;10.38;7.80;;;;;;;13.14;59.91;99646.59;4360074;32;20451;-89
2021/04/19 07:30:35;;;;;;;12.60;8.68;;;;;;;13.30;59.91;99641.59;4359933;32;20166;-89
2021/04/19 07:33:00;;;;;;;9.57;6.62;;;;;;;13.33;59.91;99641.44;4335295;32;20103;-89
2021/04/19 07:35:35;;;;;;;10.40;7.12;;;;;;;13.44;59.92;99638.34;4360025;32;20869;-89
2021/04/19 07:38:04;;;;;;;10.23;7.57;;;;;;;13.37;59.92;99640.38;4349319;32;20102;-89
2021/04/19 07:40:34;;;;;;;8.90;6.80;;;;;;;13.15;59.90;99635.22;4362859;32;20126;-90
2021/04/19 07:43:20;;;;;;;11.73;7.68;;;;;;;13.42;59.92;99640.19;4363288;32;20129;-89
2021/04/19 07:45:59;;;;;;;11.35;6.78;;;;;;;13.16;59.90;99639.53;4361830;32;20155;-89
2021/04/19 07:48:32;;;;;;;9.77;6.20;;;;;;;13.45;59.92;99637.41;4361651;32;20122;-88
2021/04/19 07:50:57;;;;;;;9.82;6.68;;;;;;;13.47;59.91;99636.44;4361509;32;20133;-89
2021/04/19 07:53:23;;;;;;;9.13;6.37;;;;;;;13.41;59.91;99635.87;4336748;32;20154;-89
2021/04/19 07:55:52;;;;;;;8.02;5.47;;;;;;;13.48;59.91;99638.13;4349243;32;20480;-89
2021/04/19 07:58:19;;;;;;;6.20;4.82;;;;;;;13.58;59.93;99632.50;4349991;32;20766;-89
2021/04/19 08:00:44;;;;;;;9.35;6.10;;;;;;;13.49;59.92;99632.00;4336826;32;20111;-90
2021/04/19 08:03:19;;;;;;;9.23;7.15;;;;;;;13.64;59.93;99626.97;4348659;32;20198;-89
2021/04/19 08:05:49;;;;;;;9.40;6.93;;;;;;;13.58;59.93;99627.25;4337523;32;20094;-89
2021/04/19 08:08:37;;;;;;;34.70;16.98;;;;;;;13.63;59.92;99625.28;4349344;32;20145;-89
2021/04/19 08:11:07;;;;;;;17.37;10.13;;;;;;;13.87;59.93;99621.50;4361541;32;20107;-89
2021/04/19 08:13:32;;;;;;;31.15;16.58;;;;;;;13.91;59.94;99619.59;4349164;32;20221;-89
2021/04/19 08:16:18;;;;;;;29.23;15.98;;;;;;;13.87;59.93;99618.88;4349018;32;20107;-89
2021/04/19 08:18:44;;;;;;;9.55;6.45;;;;;;;13.78;59.93;99620.19;4349062;32;20129;-89
2021/04/19 08:21:11;;;;;;;9.35;7.40;;;;;;;13.94;59.94;99615.03;4348947;32;20118;-89
2021/04/19 08:23:40;;;;;;;23.80;14.35;;;;;;;13.87;59.94;99618.03;4361557;32;20129;-90
2021/04/19 08:26:06;;;;;;;13.05;8.65;;;;;;;13.92;59.94;99622.13;4349007;32;20120;-89
2021/04/19 08:28:42;;;;;;;9.07;7.18;;;;;;;13.91;59.94;99617.81;4336041;32;27993;-89
2021/04/19 08:31:07;;;;;;;9.13;6.55;;;;;;;13.83;59.94;99618.19;4361422;32;20119;-89
2021/04/19 08:33:34;;;;;;;6.68;5.07;;;;;;;13.95;59.94;99618.50;4336602;32;20468;-90
2021/04/19 08:35:59;;;;;;;7.35;4.87;;;;;;;14.11;59.95;99619.47;4349029;32;20523;-90
2021/04/19 08:38:24;;;;;;;6.15;4.32;;;;;;;13.96;59.95;99615.84;4348745;32;20123;-89
2021/04/19 08:40:50;;;;;;;4.68;3.83;;;;;;;14.18;59.96;99617.41;4336259;32;20103;-88
2021/04/19 08:43:19;;;;;;;4.68;3.58;;;;;;;14.27;59.96;99622.22;4348613;32;20180;-88
2021/04/19 08:45:45;;;;;;;5.28;3.90;;;;;;;14.39;59.97;99617.19;4349111;32;20094;-90
2021/04/19 08:48:12;;;;;;;6.40;4.90;;;;;;;14.65;59.99;99623.78;4360439;32;20460;-89
2021/04/19 08:50:38;;;;;;;7.82;4.80;;;;;;;14.77;59.99;99617.09;4362501;32;20126;-89
2021/04/19 08:53:05;;;;;;;7.93;5.40;;;;;;;14.79;60.00;99619.63;4361339;32;20131;-90
2021/04/19 08:55:30;;;;;;;6.25;4.22;;;;;;;14.92;60.00;99621.53;4348984;32;20261;-90
2021/04/19 08:58:03;;;;;;;5.50;4.00;;;;;;;14.82;59.99;99609.81;4348531;32;20114;-88
2021/04/19 09:00:29;;;;;;;5.90;4.05;;;;;;;14.99;60.00;99617.66;4361179;32;20119;-88
2021/04/19 09:02:58;;;;;;;5.53;4.03;;;;;;;14.98;60.00;99615.13;4348412;32;20222;-88
2021/04/19 09:05:24;;;;;;;7.83;5.73;;;;;;;14.87;60.00;99617.44;4348816;32;20095;-88
2021/04/19 09:07:49;;;;;;;9.45;5.87;;;;;;;14.64;59.98;99613.37;4347858;32;22739;-89
2021/04/19 09:10:16;;;;;;;6.47;4.28;;;;;;;14.55;59.98;99624.34;4360732;32;20107;-88
2021/04/19 09:12:42;;;;;;;5.85;4.40;;;;;;;14.74;59.99;99617.25;4348664;32;20718;-90
2021/04/19 09:15:17;;;;;;;6.60;3.75;;;;;;;14.71;59.98;99609.53;4336395;32;20107;-91
2021/04/19 09:17:44;;;;;;;5.07;4.05;;;;;;;14.65;59.98;99618.53;4360880;32;20157;-89
2021/04/19 09:20:11;;;;;;;7.78;5.12;;;;;;;14.54;59.98;99620.03;4361229;32;20483;-89
2021/04/19 09:22:37;;;;;;;7.90;5.00;;;;;;;14.53;59.98;99623.56;4348494;32;20202;-89
2021/04/19 09:25:18;;;;;;;6.47;5.10;;;;;;;14.72;59.99;99619.09;4349016;32;20353;-90
2021/04/19 09:27:53;;;;;;;6.57;4.57;;;;;;;14.90;59.99;99612.87;4362238;32;20109;-89
2021/04/19 09:30:28;;;;;;;7.25;5.10;;;;;;;15.01;59.99;99620.22;4348560;32;20111;-90
2021/04/19 09:33:03;;;;;;;7.97;5.32;;;;;;;14.91;59.99;99619.84;4362103;32;20260;-90
2021/04/19 09:35:41;;;;;;;9.40;5.75;;;;;;;14.92;60.00;99621.53;4361032;32;20086;-91
2021/04/19 09:38:13;;;;;;;8.82;4.70;;;;;;;14.74;59.99;99619.87;4360815;32;20495;-90
2021/04/19 09:40:55;;;;;;;5.37;4.45;;;;;;;14.87;60.00;99626.16;4348190;32;20508;-90
2021/04/19 09:43:36;;;;;;;4.15;3.45;;;;;;;14.68;59.98;99623.66;4360487;32;20141;-90
2021/04/19 09:46:28;;;;;;;4.12;3.70;;;;;;;14.76;59.98;99619.78;4360697;32;20165;-90
2021/04/19 09:49:02;;;;;;;3.92;2.97;;;;;;;14.57;59.98;99625.09;4360435;32;20531;-90
2021/04/19 09:51:43;;;;;;;5.30;4.07;;;;;;;14.56;59.98;99621.63;4349349;32;20099;-89
2021/04/19 09:54:11;;;;;;;6.78;4.45;;;;;;;14.50;59.98;99619.34;4360714;32;20150;-90
2021/04/19 09:56:41;;;;;;;5.82;4.30;;;;;;;14.33;59.96;99621.91;4348659;32;20476;-89
2021/04/19 09:59:07;;;;;;;5.85;3.95;;;;;;;14.46;59.97;99623.03;4348258;32;20535;-88
2021/04/19 10:01:34;;;;;;;9.73;4.93;;;;;;;14.59;59.98;99612.78;4335790;32;20535;-90
2021/04/19 10:04:00;;;;;;;7.68;4.35;;;;;;;14.35;59.97;99615.66;4336298;32;20110;-91
2021/04/19 10:06:31;;;;;;;5.93;4.12;;;;;;;14.33;59.96;99616.66;4331037;32;185375;-89
2021/04/19 10:08:57;;;;;;;5.35;4.05;;;;;;;14.52;59.98;99607.00;4349139;32;20090;-88
2021/04/19 10:11:24;;;;;;;6.30;4.57;;;;;;;14.59;59.98;99607.53;4348442;32;20161;-90
2021/04/19 10:13:50;;;;;;;5.65;4.68;;;;;;;14.59;59.98;99600.53;4348590;32;20137;-89
2021/04/19 10:16:16;;;;;;;5.28;4.10;;;;;;;14.53;59.98;99605.22;4335886;32;20111;-90
2021/04/19 10:18:46;;;;;;;5.37;4.25;;;;;;;14.61;59.98;99603.91;4348498;32;20103;-90
2021/04/19 10:21:22;;;;;;;4.47;3.95;;;;;;;14.63;59.97;99606.44;4360536;32;20165;-88
2021/04/19 10:23:48;;;;;;;5.85;4.43;;;;;;;14.61;59.98;99603.06;4360736;32;20156;-89
2021/04/19 10:26:13;;;;;;;6.05;4.40;;;;;;;14.31;59.96;99608.03;4347765;32;25975;-89
2021/04/19 10:28:41;;;;;;;5.85;4.37;;;;;;;14.19;59.96;99606.84;4360981;32;20111;-90
2021/04/19 10:31:27;;;;;;;5.50;4.18;;;;;;;14.16;59.96;99603.53;4348074;32;20373;-89
2021/04/19 10:33:54;;;;;;;6.62;4.35;;;;;;;14.05;59.95;99596.22;4360311;32;20141;-91
2021/04/19 10:36:24;;;;;;;5.40;3.83;;;;;;;13.96;59.95;99597.53;4348165;32;20523;-89
2021/04/19 10:39:09;;;;;;;6.30;4.10;;;;;;;13.86;59.94;99598.88;4336328;32;20117;-89
2021/04/19 10:41:36;;;;;;;6.65;4.40;;;;;;;13.93;59.94;99597.66;4359964;32;20110;-89
2021/04/19 10:44:02;;;;;;;7.57;4.72;;;;;;;13.78;59.93;99601.88;4347961;32;20102;-89
2021/04/19 10:46:30;;;;;;;6.90;5.45;;;;;;;13.58;59.93;99606.34;4360299;32;20121;-89
2021/04/19 10:48:57;;;;;;;5.97;4.68;;;;;;;13.67;59.93;99604.13;4348186;32;20117;-88
2021/04/19 10:51:42;;;;;;;7.75;5.35;;;;;;;13.71;59.93;99600.44;4361790;32;20130;-88
2021/04/19 10:54:10;;;;;;;6.80;4.37;;;;;;;13.64;59.94;99599.03;4360116;32;20122;-88
2021/04/19 10:56:38;;;;;;;6.43;4.80;;;;;;;13.88;59.95;99599.66;4347838;32;20437;-89
2021/04/19 10:59:07;;;;;;;8.65;5.68;;;;;;;14.01;59.94;99600.78;4346246;32;21086;-89
2021/04/19 11:01:35;;;;;;;15.45;7.07;;;;;;;14.09;59.96;99593.38;4347355;32;20187;-89
2021/04/19 11:04:02;;;;;;;8.52;5.18;;;;;;;14.27;59.96;99594.25;4344829;32;20111;-89
2021/04/19 11:06:27;;;;;;;6.60;4.70;;;;;;;14.32;59.96;99592.25;4356830;32;20120;-90
2021/04/19 11:09:00;;;;;;;8.63;5.32;;;;;;;14.56;59.98;99587.59;4347187;32;20389;-90
2021/04/19 11:11:29;;;;;;;8.27;5.97;;;;;;;14.61;59.98;99587.34;4346208;32;20131;-90
2021/04/19 11:14:06;;;;;;;7.53;5.00;;;;;;;14.46;59.97;99591.59;4359212;32;20153;-90
2021/04/19 11:16:32;;;;;;;14.05;6.35;;;;;;;14.42;59.97;99590.84;4334975;32;20260;-90
2021/04/19 11:18:57;;;;;;;7.07;5.30;;;;;;;14.30;59.96;99588.00;4334757;32;20598;-90
2021/04/19 11:21:35;;;;;;;10.48;5.65;;;;;;;14.37;59.97;99597.25;4359584;32;20148;-90
2021/04/19 11:24:12;;;;;;;6.78;5.20;;;;;;;14.17;59.95;99590.37;4334524;32;21700;-89
2021/04/19 11:26:38;;;;;;;8.75;5.50;;;;;;;13.84;59.94;99590.25;4359841;32;20095;-89
2021/04/19 11:29:03;;;;;;;5.75;4.05;;;;;;;13.77;59.94;99594.94;4359325;32;20596;-89
2021/04/19 11:31:41;;;;;;;6.53;4.12;;;;;;;13.87;59.94;99592.72;4359503;32;20127;-89
2021/04/19 11:34:11;;;;;;;6.45;5.12;;;;;;;13.86;59.93;99590.19;4359424;32;20166;-89
2021/04/19 11:36:40;;;;;;;;;;;;;;;13.85;59.94;99591.94;4347721;32;20542;-90
2021/04/19 11:39:16;;;;;;;5.37;4.32;;;;;;;14.07;59.95;99586.53;4359768;32;20046;-88